Air Navigation Services of Czech Republic  
Last data update:  25.03.2017 07:38:07 UTC Česká verze
   METEO Page displayed:  25.03.2017 07:39:35 UTC  
help
METAR EDDB 250720Z 27004KT 250V310 CAVOK 05/01 Q1030 NOSIG=
METAR EDDC 250720Z 21004KT CAVOK 04/01 Q1030 NOSIG=
METAR EDDE 250720Z 24003KT CAVOK 03/01 Q1030 NOSIG=
METAR EDDF 250720Z 02010KT CAVOK 07/01 Q1028 NOSIG=
METAR EDDM 250720Z 07010KT 040V100 CAVOK 05/02 Q1026 NOSIG=
METAR EDDN 250720Z 08004KT 350V140 CAVOK 06/03 Q1028 NOSIG=
METAR EDDP 250720Z 36004KT CAVOK 04/01 Q1031 NOSIG=
METAR EDDT 250720Z 26004KT CAVOK 05/M00 Q1030 NOSIG=
METAR EDQM 241850Z 02011KT CAVOK 06/00 Q1029=
METAR EPBY 250730Z 27009KT CAVOK 06/M02 Q1025 =
METAR EPGD 250730Z 28017KT 9999 BKN014 04/00 Q1023 =
METAR EPKK 250730Z 22007KT 0700 R25/0800U FG FEW001 BKN002 02/02 Q1028 =
METAR EPKT 250730Z 27006KT 6000 NSC 04/02 Q1027 =
METAR EPLL 250730Z 24007KT 210V280 CAVOK 05/M02 Q1026 =
METAR EPPO 250730Z 27009KT CAVOK 06/M03 Q1027 =
METAR EPRZ 250730Z 24009KT 7000 NSC 04/04 Q1026 =
METAR EPWA 250730Z 26005KT 230V290 CAVOK 04/M01 Q1025 NOSIG=
METAR EPWR 250730Z 28009KT CAVOK 06/02 Q1029 =
METAR LHBP 250730Z VRB02KT CAVOK 11/02 Q1027 NOSIG=
METAR LHSM 250715Z 33007KT 9999 FEW026 BKN040 06/02 Q1028=
METAR LKCV 250700Z 11002KT CAVOK 02/00 Q1030 NOSIG=
METAR LKKB 250700Z VRB02KT CAVOK 05/02 Q1030 NOSIG =
METAR LKKU NIL
METAR LKKV 250730Z 06005KT 030V090 CAVOK 05/M01 Q1028 RMK REG QNH 1025=
METAR LKLN 250700Z AUTO VRB03KT CAVOK 04/01 Q1029=
METAR LKMT 250730Z VRB02KT 4500 BR NSC 05/02 Q1029 BECMG 6000 NSW RMK REG QNH 1025=
METAR LKNA 250700Z 32004KT CAVOK 03/M00 Q1028 NOSIG=
METAR LKPD 250700Z VRB01KT CAVOK 02/00 Q1030 NOSIG =
METAR LKPR 250730Z 34004KT 300V020 CAVOK 05/01 Q1029 NOSIG RMK REG QNH 1025=
METAR LKTB 250730Z VRB01KT CAVOK 07/01 Q1029 NOSIG RMK REG QNH 1025=
METAR LKVO NIL
METAR LOWI 250720Z VRB02KT 9999 OVC015 08/05 Q1025 NOSIG=
METAR LOWL 250720Z 08010KT CAVOK 07/01 Q1028 NOSIG=
METAR LOWS 250720Z 03005KT 9999 FEW013 BKN016 07/05 Q1025 NOSIG=
METAR LOWW 250720Z 35006KT 320V040 9999 FEW035 BKN200 06/01 Q1028 NOSIG=
METAR LZIB 250730Z 03007KT 350V060 9999 FEW028 BKN040 08/02 Q1028 NOSIG=
METAR LZKZ 250730Z 01013KT CAVOK 09/M00 Q1026 NOSIG=
METAR LZPP 250730Z 06003KT 030V110 9999 SCT040 07/02 Q1028=
METAR LZSL 250730Z VRB02KT 9999 FEW041 06/01 Q1027=
METAR LZTT 250730Z 24006KT 9999 FEW036 04/M02 Q1026 NOSIG=
METAR LZZI 250730Z 10004KT 070V130 9999 FEW020 06/01 Q1028=